sensor_id;sensor_type;location;lat;lon;timestamp;pressure;altitude;pressure_sealevel;temperature;humidity
21980;BME280;11154;48.558;9.234;2024-01-30T00:01:23;98850.53;;;10.43;58.19
21980;BME280;11154;48.558;9.234;2024-01-30T00:03:24;98848.38;;;10.37;59.47
21980;BME280;11154;48.558;9.234;2024-01-30T00:05:26;98843.34;;;10.34;59.36
21980;BME280;11154;48.558;9.234;2024-01-30T00:07:29;98838.25;;;10.31;59.41
21980;BME280;11154;48.558;9.234;2024-01-30T00:09:30;98841.06;;;10.29;59.53
21980;BME280;11154;48.558;9.234;2024-01-30T00:11:32;98836.72;;;10.28;60.19
21980;BME280;11154;48.558;9.234;2024-01-30T00:13:34;98834.31;;;10.25;60.16
21980;BME280;11154;48.558;9.234;2024-01-30T00:15:35;98843.25;;;10.24;60.48
21980;BME280;11154;48.558;9.234;2024-01-30T00:17:37;98840.75;;;10.23;60.81
21980;BME280;11154;48.558;9.234;2024-01-30T00:19:38;98836.38;;;10.22;61.81
21980;BME280;11154;48.558;9.234;2024-01-30T00:21:39;98844.38;;;10.22;61.82
21980;BME280;11154;48.558;9.234;2024-01-30T00:23:42;98842.66;;;10.21;61.58
21980;BME280;11154;48.558;9.234;2024-01-30T00:25:44;98849.69;;;10.22;62.56
21980;BME280;11154;48.558;9.234;2024-01-30T00:27:46;98845.06;;;10.24;62.38
21980;BME280;11154;48.558;9.234;2024-01-30T00:29:47;98844.38;;;10.22;61.52
21980;BME280;11154;48.558;9.234;2024-01-30T00:31:48;98846.28;;;10.20;60.80
21980;BME280;11154;48.558;9.234;2024-01-30T00:33:49;98842.91;;;10.18;61.42
21980;BME280;11154;48.558;9.234;2024-01-30T00:35:51;98841.47;;;10.14;61.33
21980;BME280;11154;48.558;9.234;2024-01-30T00:37:52;98853.09;;;10.13;61.20
21980;BME280;11154;48.558;9.234;2024-01-30T00:39:55;98842.59;;;10.11;61.41
21980;BME280;11154;48.558;9.234;2024-01-30T00:41:56;98840.16;;;10.08;60.80
21980;BME280;11154;48.558;9.234;2024-01-30T00:43:57;98841.25;;;10.06;61.20
21980;BME280;11154;48.558;9.234;2024-01-30T00:45:58;98841.41;;;10.05;60.24
21980;BME280;11154;48.558;9.234;2024-01-30T00:48:00;98841.41;;;10.05;60.89
21980;BME280;11154;48.558;9.234;2024-01-30T00:50:00;98850.34;;;10.04;60.51
21980;BME280;11154;48.558;9.234;2024-01-30T00:52:02;98842.72;;;9.99;59.53
21980;BME280;11154;48.558;9.234;2024-01-30T00:54:04;98844.69;;;9.97;60.96
21980;BME280;11154;48.558;9.234;2024-01-30T00:56:08;98848.28;;;9.96;60.58
21980;BME280;11154;48.558;9.234;2024-01-30T00:58:09;98842.72;;;9.99;60.88
21980;BME280;11154;48.558;9.234;2024-01-30T01:00:12;98844.69;;;9.97;61.56
21980;BME280;11154;48.558;9.234;2024-01-30T01:02:17;98842.88;;;9.98;61.53
21980;BME280;11154;48.558;9.234;2024-01-30T01:04:17;98849.13;;;9.97;60.80
21980;BME280;11154;48.558;9.234;2024-01-30T01:06:21;98848.28;;;9.96;60.85
21980;BME280;11154;48.558;9.234;2024-01-30T01:08:23;98851.06;;;9.95;59.98
21980;BME280;11154;48.558;9.234;2024-01-30T01:10:25;98849.38;;;9.94;60.48
21980;BME280;11154;48.558;9.234;2024-01-30T01:12:29;98849.38;;;9.94;60.92
21980;BME280;11154;48.558;9.234;2024-01-30T01:14:30;98848.53;;;9.93;60.96
21980;BME280;11154;48.558;9.234;2024-01-30T01:16:31;98861.94;;;9.92;59.68
21980;BME280;11154;48.558;9.234;2024-01-30T01:18:33;98855.06;;;9.89;60.93
21980;BME280;11154;48.558;9.234;2024-01-30T01:20:35;98851.53;;;9.89;60.46
21980;BME280;11154;48.558;9.234;2024-01-30T01:22:37;98845.41;;;9.88;61.54
21980;BME280;11154;48.558;9.234;2024-01-30T01:24:40;98848.78;;;9.90;61.34
21980;BME280;11154;48.558;9.234;2024-01-30T01:26:42;98857.97;;;9.97;60.85
21980;BME280;11154;48.558;9.234;2024-01-30T01:28:45;98846.84;;;10.03;60.61
21980;BME280;11154;48.558;9.234;2024-01-30T01:30:46;98847.53;;;10.05;59.94
21980;BME280;11154;48.558;9.234;2024-01-30T01:32:48;98847.44;;;10.07;60.09
21980;BME280;11154;48.558;9.234;2024-01-30T01:34:55;98853.44;;;10.08;59.76
21980;BME280;11154;48.558;9.234;2024-01-30T01:36:56;98851.66;;;10.09;58.88
21980;BME280;11154;48.558;9.234;2024-01-30T01:38:58;98854.31;;;10.09;58.78
21980;BME280;11154;48.558;9.234;2024-01-30T01:41:00;98852.63;;;10.08;58.66
21980;BME280;11154;48.558;9.234;2024-01-30T01:43:03;98843.94;;;10.06;59.07
21980;BME280;11154;48.558;9.234;2024-01-30T01:45:07;98844.28;;;10.02;59.77
21980;BME280;11154;48.558;9.234;2024-01-30T01:47:08;98853.13;;;9.91;60.32
21980;BME280;11154;48.558;9.234;2024-01-30T01:49:10;98846.13;;;9.79;60.03
21980;BME280;11154;48.558;9.234;2024-01-30T01:51:12;98846.91;;;9.70;60.17
21980;BME280;11154;48.558;9.234;2024-01-30T01:53:15;98849.59;;;9.59;59.65
21980;BME280;11154;48.558;9.234;2024-01-30T01:55:19;98851.72;;;9.54;59.23
21980;BME280;11154;48.558;9.234;2024-01-30T01:57:24;98841.25;;;9.53;59.98
21980;BME280;11154;48.558;9.234;2024-01-30T01:59:26;98838.34;;;9.56;60.43
21980;BME280;11154;48.558;9.234;2024-01-30T02:01:31;98818.72;;;7.43;68.39
21980;BME280;11154;48.558;9.234;2024-01-30T02:03:34;98819.25;;;6.26;75.63
21980;BME280;11154;48.558;9.234;2024-01-30T02:05:36;98813.34;;;5.83;79.38
21980;BME280;11154;48.558;9.234;2024-01-30T02:07:38;98815.34;;;5.66;85.36
21980;BME280;11154;48.558;9.234;2024-01-30T02:09:40;98826.94;;;6.04;95.83
21980;BME280;11154;48.558;9.234;2024-01-30T02:11:42;98860.41;;;6.79;95.47
21980;BME280;11154;48.558;9.234;2024-01-30T02:13:43;98846.84;;;7.57;90.45
21980;BME280;11154;48.558;9.234;2024-01-30T02:15:49;98850.88;;;7.86;84.38
21980;BME280;11154;48.558;9.234;2024-01-30T02:17:52;98854.47;;;8.08;80.28
21980;BME280;11154;48.558;9.234;2024-01-30T02:19:52;98846.75;;;8.28;76.70
21980;BME280;11154;48.558;9.234;2024-01-30T02:21:55;98853.22;;;8.48;73.45
21980;BME280;11154;48.558;9.234;2024-01-30T02:23:58;98849.78;;;8.69;71.79
21980;BME280;11154;48.558;9.234;2024-01-30T02:26:01;98844.88;;;8.86;69.72
21980;BME280;11154;48.558;9.234;2024-01-30T02:28:03;98851.41;;;9.04;67.49
21980;BME280;11154;48.558;9.234;2024-01-30T02:30:05;98840.66;;;9.17;65.63
21980;BME280;11154;48.558;9.234;2024-01-30T02:32:06;98838.03;;;9.28;65.18
21980;BME280;11154;48.558;9.234;2024-01-30T02:34:08;98839.69;;;9.39;64.56
21980;BME280;11154;48.558;9.234;2024-01-30T02:36:10;98842.69;;;9.46;63.14
21980;BME280;11154;48.558;9.234;2024-01-30T02:38:13;98846.44;;;9.43;62.18
21980;BME280;11154;48.558;9.234;2024-01-30T02:40:14;98845.22;;;9.47;62.49
21980;BME280;11154;48.558;9.234;2024-01-30T02:42:15;98845.00;;;9.50;63.04
21980;BME280;11154;48.558;9.234;2024-01-30T02:44:17;98837.75;;;9.52;61.33
21980;BME280;11154;48.558;9.234;2024-01-30T02:46:19;98835.09;;;9.52;61.19
21980;BME280;11154;48.558;9.234;2024-01-30T02:48:20;98839.44;;;9.53;61.88
21980;BME280;11154;48.558;9.234;2024-01-30T02:50:22;98838.34;;;9.56;62.58
21980;BME280;11154;48.558;9.234;2024-01-30T02:52:23;98832.06;;;9.57;62.74
21980;BME280;11154;48.558;9.234;2024-01-30T02:54:26;98829.16;;;9.60;62.99
21980;BME280;11154;48.558;9.234;2024-01-30T02:56:27;98829.75;;;9.63;62.78
21980;BME280;11154;48.558;9.234;2024-01-30T02:58:29;98833.25;;;9.64;62.95
21980;BME280;11154;48.558;9.234;2024-01-30T03:00:30;98831.19;;;9.67;62.41
21980;BME280;11154;48.558;9.234;2024-01-30T03:02:32;98826.47;;;9.71;61.68
21980;BME280;11154;48.558;9.234;2024-01-30T03:04:34;98832.66;;;9.71;60.86
21980;BME280;11154;48.558;9.234;2024-01-30T03:06:35;98829.88;;;9.73;60.64
21980;BME280;11154;48.558;9.234;2024-01-30T03:08:37;98831.78;;;9.71;60.31
21980;BME280;11154;48.558;9.234;2024-01-30T03:10:40;98833.75;;;9.69;59.42
21980;BME280;11154;48.558;9.234;2024-01-30T03:12:42;98830.38;;;9.67;59.83
21980;BME280;11154;48.558;9.234;2024-01-30T03:14:43;98837.72;;;9.63;60.74
21980;BME280;11154;48.558;9.234;2024-01-30T03:16:45;98831.69;;;9.61;61.46
21980;BME280;11154;48.558;9.234;2024-01-30T03:18:45;98834.25;;;9.63;60.91
21980;BME280;11154;48.558;9.234;2024-01-30T03:20:48;98824.69;;;9.60;60.91
21980;BME280;11154;48.558;9.234;2024-01-30T03:22:50;98827.47;;;9.59;59.98
21980;BME280;11154;48.558;9.234;2024-01-30T03:24:52;98832.19;;;9.55;59.79
21980;BME280;11154;48.558;9.234;2024-01-30T03:26:55;98836.53;;;9.56;60.21
21980;BME280;11154;48.558;9.234;2024-01-30T03:28:57;98841.38;;;9.51;60.32
21980;BME280;11154;48.558;9.234;2024-01-30T03:30:57;98837.75;;;9.52;61.10
21980;BME280;11154;48.558;9.234;2024-01-30T03:32:59;98831.59;;;9.52;60.78
21980;BME280;11154;48.558;9.234;2024-01-30T03:35:00;98841.97;;;9.55;60.40
21980;BME280;11154;48.558;9.234;2024-01-30T03:37:02;98839.44;;;9.53;59.48
21980;BME280;11154;48.558;9.234;2024-01-30T03:39:04;98840.41;;;9.52;59.34
21980;BME280;11154;48.558;9.234;2024-01-30T03:41:07;98832.69;;;9.49;60.29
21980;BME280;11154;48.558;9.234;2024-01-30T03:43:10;98838.25;;;9.46;60.30
21980;BME280;11154;48.558;9.234;2024-01-30T03:45:12;98834.88;;;9.44;60.87
21980;BME280;11154;48.558;9.234;2024-01-30T03:47:13;98832.94;;;9.46;61.08
21980;BME280;11154;48.558;9.234;2024-01-30T03:49:14;98839.44;;;9.53;60.40
21980;BME280;11154;48.558;9.234;2024-01-30T03:51:16;98841.13;;;9.54;59.83
21980;BME280;11154;48.558;9.234;2024-01-30T03:53:18;98839.44;;;9.53;58.78
21980;BME280;11154;48.558;9.234;2024-01-30T03:55:18;98843.91;;;9.53;58.45
21980;BME280;11154;48.558;9.234;2024-01-30T03:57:20;98847.41;;;9.53;59.86
21980;BME280;11154;48.558;9.234;2024-01-30T03:59:23;98834.16;;;9.53;60.92
21980;BME280;11154;48.558;9.234;2024-01-30T04:01:25;98839.19;;;9.56;60.54
21980;BME280;11154;48.558;9.234;2024-01-30T04:03:26;98845.47;;;9.55;60.19
21980;BME280;11154;48.558;9.234;2024-01-30T04:05:28;98838.97;;;9.59;59.19
21980;BME280;11154;48.558;9.234;2024-01-30T04:07:30;98840.88;;;9.57;58.31
21980;BME280;11154;48.558;9.234;2024-01-30T04:09:31;98846.19;;;9.57;57.86
21980;BME280;11154;48.558;9.234;2024-01-30T04:11:33;98846.94;;;9.59;57.87
21980;BME280;11154;48.558;9.234;2024-01-30T04:13:34;98848.84;;;9.57;58.16
21980;BME280;11154;48.558;9.234;2024-01-30T04:15:37;98842.09;;;9.53;58.27
21980;BME280;11154;48.558;9.234;2024-01-30T04:17:39;98848.38;;;9.52;58.59
21980;BME280;11154;48.558;9.234;2024-01-30T04:19:40;98846.44;;;9.43;58.65
21980;BME280;11154;48.558;9.234;2024-01-30T04:21:42;98846.19;;;9.35;59.71
21980;BME280;11154;48.558;9.234;2024-01-30T04:23:43;98836.81;;;9.32;60.38
21980;BME280;11154;48.558;9.234;2024-01-30T04:25:45;98836.94;;;9.30;59.77
21980;BME280;11154;48.558;9.234;2024-01-30T04:27:47;98843.34;;;9.28;60.31
21980;BME280;11154;48.558;9.234;2024-01-30T04:29:47;98830.28;;;9.25;59.83
21980;BME280;11154;48.558;9.234;2024-01-30T04:31:50;98834.78;;;9.24;59.14
21980;BME280;11154;48.558;9.234;2024-01-30T04:33:52;98836.56;;;9.24;59.43
21980;BME280;11154;48.558;9.234;2024-01-30T04:35:53;98834.88;;;9.23;59.20
21980;BME280;11154;48.558;9.234;2024-01-30T04:37:54;98834.41;;;9.18;59.12
21980;BME280;11154;48.558;9.234;2024-01-30T04:39:56;98839.97;;;9.15;57.63
21980;BME280;11154;48.558;9.234;2024-01-30T04:41:58;98836.69;;;9.11;58.75
21980;BME280;11154;48.558;9.234;2024-01-30T04:43:59;98841.63;;;9.05;58.51
21980;BME280;11154;48.558;9.234;2024-01-30T04:46:01;98837.06;;;9.07;58.88
21980;BME280;11154;48.558;9.234;2024-01-30T04:48:05;98843.31;;;9.06;58.85
21980;BME280;11154;48.558;9.234;2024-01-30T04:50:07;98843.53;;;9.03;57.84
21980;BME280;11154;48.558;9.234;2024-01-30T04:52:09;98846.59;;;8.98;57.96
21980;BME280;11154;48.558;9.234;2024-01-30T04:54:11;98848.97;;;9.01;60.81
21980;BME280;11154;48.558;9.234;2024-01-30T04:56:12;98847.19;;;9.02;63.19
21980;BME280;11154;48.558;9.234;2024-01-30T04:58:14;98852.50;;;9.02;62.24
21980;BME280;11154;48.558;9.234;2024-01-30T05:00:16;98852.97;;;8.96;61.05
21980;BME280;11154;48.558;9.234;2024-01-30T05:02:18;98855.97;;;8.91;61.06
21980;BME280;11154;48.558;9.234;2024-01-30T05:04:21;98854.41;;;8.89;61.18
21980;BME280;11154;48.558;9.234;2024-01-30T05:06:26;98853.88;;;8.84;59.61
21980;BME280;11154;48.558;9.234;2024-01-30T05:08:28;98853.41;;;8.79;59.47
21980;BME280;11154;48.558;9.234;2024-01-30T05:10:30;98853.66;;;8.87;59.12
21980;BME280;11154;48.558;9.234;2024-01-30T05:12:31;98851.75;;;8.89;58.58
21980;BME280;11154;48.558;9.234;2024-01-30T05:14:33;98850.41;;;8.94;57.87
21980;BME280;11154;48.558;9.234;2024-01-30T05:16:34;98856.44;;;8.96;58.63
21980;BME280;11154;48.558;9.234;2024-01-30T05:18:36;98846.31;;;9.01;59.34
21980;BME280;11154;48.558;9.234;2024-01-30T05:20:39;98848.63;;;9.06;59.06
21980;BME280;11154;48.558;9.234;2024-01-30T05:22:40;98852.00;;;9.08;58.64
21980;BME280;11154;48.558;9.234;2024-01-30T05:24:45;98846.44;;;9.11;59.61
21980;BME280;11154;48.558;9.234;2024-01-30T05:26:46;98851.53;;;9.14;58.77
21980;BME280;11154;48.558;9.234;2024-01-30T05:28:48;98844.28;;;9.16;58.67
21980;BME280;11154;48.558;9.234;2024-01-30T05:30:50;98850.31;;;9.18;58.96
21980;BME280;11154;48.558;9.234;2024-01-30T05:32:51;98852.75;;;9.21;59.32
21980;BME280;11154;48.558;9.234;2024-01-30T05:34:53;98851.41;;;9.26;58.84
21980;BME280;11154;48.558;9.234;2024-01-30T05:36:56;98855.50;;;9.30;58.67
21980;BME280;11154;48.558;9.234;2024-01-30T05:38:57;98846.47;;;9.32;58.16
21980;BME280;11154;48.558;9.234;2024-01-30T05:40:59;98852.00;;;9.30;57.98
21980;BME280;11154;48.558;9.234;2024-01-30T05:43:00;98850.44;;;9.27;58.42
21980;BME280;11154;48.558;9.234;2024-01-30T05:45:03;98862.88;;;9.27;58.17
21980;BME280;11154;48.558;9.234;2024-01-30T05:47:05;98854.19;;;9.25;58.12
21980;BME280;11154;48.558;9.234;2024-01-30T05:49:07;98859.63;;;9.23;59.04
21980;BME280;11154;48.558;9.234;2024-01-30T05:51:09;98865.50;;;9.16;58.34
21980;BME280;11154;48.558;9.234;2024-01-30T05:53:12;98864.31;;;9.09;57.58
21980;BME280;11154;48.558;9.234;2024-01-30T05:55:13;98859.38;;;9.04;58.50
21980;BME280;11154;48.558;9.234;2024-01-30T05:57:15;98861.75;;;8.96;58.28
21980;BME280;11154;48.558;9.234;2024-01-30T05:59:17;98858.63;;;8.91;58.62
21980;BME280;11154;48.558;9.234;2024-01-30T06:01:18;98858.97;;;8.87;59.08
21980;BME280;11154;48.558;9.234;2024-01-30T06:03:20;98867.16;;;8.84;58.84
21980;BME280;11154;48.558;9.234;2024-01-30T06:05:22;98859.66;;;8.78;59.09
21980;BME280;11154;48.558;9.234;2024-01-30T06:07:23;98861.50;;;8.77;58.75
21980;BME280;11154;48.558;9.234;2024-01-30T06:09:26;98861.63;;;8.76;58.83
21980;BME280;11154;48.558;9.234;2024-01-30T06:11:28;98864.97;;;8.78;59.00
21980;BME280;11154;48.558;9.234;2024-01-30T06:13:30;98859.56;;;8.79;60.32
21980;BME280;11154;48.558;9.234;2024-01-30T06:15:32;98865.50;;;8.83;60.27
21980;BME280;11154;48.558;9.234;2024-01-30T06:17:33;98867.06;;;8.85;59.44
21980;BME280;11154;48.558;9.234;2024-01-30T06:19:35;98857.53;;;8.83;59.36
21980;BME280;11154;48.558;9.234;2024-01-30T06:21:37;98858.84;;;8.88;60.15
21980;BME280;11154;48.558;9.234;2024-01-30T06:23:38;98866.59;;;8.91;59.57
21980;BME280;11154;48.558;9.234;2024-01-30T06:25:41;98870.81;;;8.94;60.18
21980;BME280;11154;48.558;9.234;2024-01-30T06:27:42;98868.63;;;8.99;60.47
21980;BME280;11154;48.558;9.234;2024-01-30T06:29:44;98863.09;;;9.02;60.00
21980;BME280;11154;48.558;9.234;2024-01-30T06:31:45;98874.31;;;9.05;59.56
21980;BME280;11154;48.558;9.234;2024-01-30T06:33:47;98869.72;;;9.07;59.15
21980;BME280;11154;48.558;9.234;2024-01-30T06:35:49;98867.94;;;9.08;59.89
21980;BME280;11154;48.558;9.234;2024-01-30T06:37:49;98865.97;;;9.10;60.96
21980;BME280;11154;48.558;9.234;2024-01-30T06:39:51;98872.16;;;9.10;60.36
21980;BME280;11154;48.558;9.234;2024-01-30T06:41:54;98873.47;;;9.16;60.22
21980;BME280;11154;48.558;9.234;2024-01-30T06:43:55;98869.16;;;9.15;59.46
21980;BME280;11154;48.558;9.234;2024-01-30T06:45:56;98867.44;;;9.14;59.36
21980;BME280;11154;48.558;9.234;2024-01-30T06:47:58;98880.47;;;9.17;58.92
21980;BME280;11154;48.558;9.234;2024-01-30T06:50:00;98873.09;;;9.20;59.28
21980;BME280;11154;48.558;9.234;2024-01-30T06:52:02;98869.75;;;9.18;58.93
21980;BME280;11154;48.558;9.234;2024-01-30T06:54:03;98872.50;;;9.17;59.04
21980;BME280;11154;48.558;9.234;2024-01-30T06:56:06;98874.44;;;9.15;58.27
21980;BME280;11154;48.558;9.234;2024-01-30T06:58:09;98872.63;;;9.15;58.49
21980;BME280;11154;48.558;9.234;2024-01-30T07:00:12;98868.28;;;9.14;58.58
21980;BME280;11154;48.558;9.234;2024-01-30T07:02:14;98877.09;;;9.15;58.73
21980;BME280;11154;48.558;9.234;2024-01-30T07:04:16;98879.84;;;9.13;58.47
21980;BME280;11154;48.558;9.234;2024-01-30T07:06:20;98875.50;;;9.12;58.50
21980;BME280;11154;48.558;9.234;2024-01-30T07:08:22;98877.19;;;9.13;58.48
21980;BME280;11154;48.558;9.234;2024-01-30T07:10:24;98878.28;;;9.11;58.57
21980;BME280;11154;48.558;9.234;2024-01-30T07:12:25;98885.53;;;9.09;58.61
21980;BME280;11154;48.558;9.234;2024-01-30T07:14:28;98891.06;;;9.06;58.16
21980;BME280;11154;48.558;9.234;2024-01-30T07:16:30;98895.41;;;9.07;58.33
21980;BME280;11154;48.558;9.234;2024-01-30T07:18:31;98889.38;;;9.05;58.90
21980;BME280;11154;48.558;9.234;2024-01-30T07:20:32;98900.25;;;9.02;58.23
21980;BME280;11154;48.558;9.234;2024-01-30T07:22:34;98894.19;;;9.00;58.69
21980;BME280;11154;48.558;9.234;2024-01-30T07:24:35;98894.41;;;8.97;59.58
21980;BME280;11154;48.558;9.234;2024-01-30T07:26:37;98889.25;;;8.95;59.92
21980;BME280;11154;48.558;9.234;2024-01-30T07:28:39;98894.41;;;8.97;60.32
21980;BME280;11154;48.558;9.234;2024-01-30T07:30:42;98893.72;;;8.95;60.61
21980;BME280;11154;48.558;9.234;2024-01-30T07:32:44;98901.34;;;9.32;60.88
21980;BME280;11154;48.558;9.234;2024-01-30T07:34:45;98897.38;;;9.70;59.00
21980;BME280;11154;48.558;9.234;2024-01-30T07:36:47;98892.88;;;9.82;58.38
21980;BME280;11154;48.558;9.234;2024-01-30T07:38:49;98902.31;;;9.75;57.86
21980;BME280;11154;48.558;9.234;2024-01-30T07:40:50;98894.00;;;9.57;57.53
21980;BME280;11154;48.558;9.234;2024-01-30T07:42:53;98893.13;;;9.57;57.44
21980;BME280;11154;48.558;9.234;2024-01-30T07:44:55;98892.19;;;9.47;57.85
21980;BME280;11154;48.558;9.234;2024-01-30T07:46:57;98897.97;;;9.41;58.84
21980;BME280;11154;48.558;9.234;2024-01-30T07:48:59;98893.75;;;9.38;59.30
21980;BME280;11154;48.558;9.234;2024-01-30T07:51:02;98899.28;;;9.35;59.46
21980;BME280;11154;48.558;9.234;2024-01-30T07:53:04;98902.91;;;9.34;59.54
21980;BME280;11154;48.558;9.234;2024-01-30T07:55:05;98897.59;;;9.34;59.78
21980;BME280;11154;48.558;9.234;2024-01-30T07:57:08;98899.28;;;9.35;60.54
21980;BME280;11154;48.558;9.234;2024-01-30T07:59:09;98904.38;;;9.38;60.01
21980;BME280;11154;48.558;9.234;2024-01-30T08:01:11;98901.72;;;9.38;59.69
21980;BME280;11154;48.558;9.234;2024-01-30T08:03:17;98898.09;;;9.39;60.03
21980;BME280;11154;48.558;9.234;2024-01-30T08:05:19;98901.38;;;9.43;60.21
21980;BME280;11154;48.558;9.234;2024-01-30T08:07:22;98901.22;;;9.44;59.49
21980;BME280;11154;48.558;9.234;2024-01-30T08:09:24;98894.09;;;9.45;59.89
21980;BME280;11154;48.558;9.234;2024-01-30T08:11:25;98894.97;;;9.45;60.07
21980;BME280;11154;48.558;9.234;2024-01-30T08:13:29;98891.56;;;9.43;60.93
21980;BME280;11154;48.558;9.234;2024-01-30T08:15:32;98895.69;;;9.36;60.35
21980;BME280;11154;48.558;9.234;2024-01-30T08:17:34;98899.56;;;9.32;60.55
21980;BME280;11154;48.558;9.234;2024-01-30T08:19:37;98897.03;;;9.31;61.20
21980;BME280;11154;48.558;9.234;2024-01-30T08:21:39;98895.44;;;9.29;61.70
21980;BME280;11154;48.558;9.234;2024-01-30T08:23:40;98900.63;;;9.30;61.94
21980;BME280;11154;48.558;9.234;2024-01-30T08:25:42;98897.59;;;9.34;62.63
21980;BME280;11154;48.558;9.234;2024-01-30T08:27:43;98892.28;;;9.34;62.51
21980;BME280;11154;48.558;9.234;2024-01-30T08:29:45;98892.28;;;9.34;62.77
21980;BME280;11154;48.558;9.234;2024-01-30T08:31:47;98892.28;;;9.34;63.40
21980;BME280;11154;48.558;9.234;2024-01-30T08:33:48;98885.78;;;9.38;63.71
21980;BME280;11154;48.558;9.234;2024-01-30T08:35:51;98892.31;;;9.45;63.24
21980;BME280;11154;48.558;9.234;2024-01-30T08:37:53;98887.84;;;9.46;62.68
21980;BME280;11154;48.558;9.234;2024-01-30T08:39:55;98885.03;;;9.47;62.75
21980;BME280;11154;48.558;9.234;2024-01-30T08:41:57;98884.09;;;9.48;62.74
21980;BME280;11154;48.558;9.234;2024-01-30T08:43:58;98881.34;;;9.50;63.31
21980;BME280;11154;48.558;9.234;2024-01-30T08:46:00;98894.22;;;9.54;63.12
21980;BME280;11154;48.558;9.234;2024-01-30T08:48:01;98884.34;;;9.56;63.33
21980;BME280;11154;48.558;9.234;2024-01-30T08:50:04;98885.91;;;9.59;63.61
21980;BME280;11154;48.558;9.234;2024-01-30T08:52:07;98890.13;;;9.61;63.95
21980;BME280;11154;48.558;9.234;2024-01-30T08:54:09;98882.28;;;9.60;63.33
21980;BME280;11154;48.558;9.234;2024-01-30T08:56:09;98890.84;;;9.63;63.38
21980;BME280;11154;48.558;9.234;2024-01-30T08:58:11;98895.19;;;9.64;63.96
21980;BME280;11154;48.558;9.234;2024-01-30T09:00:12;98891.59;;;9.65;64.12
21980;BME280;11154;48.558;9.234;2024-01-30T09:02:14;98897.38;;;9.70;64.49
21980;BME280;11154;48.558;9.234;2024-01-30T09:04:18;98897.81;;;9.75;65.22
21980;BME280;11154;48.558;9.234;2024-01-30T09:06:19;98902.66;;;9.81;65.56
21980;BME280;11154;48.558;9.234;2024-01-30T09:08:22;98896.00;;;9.87;65.84
21980;BME280;11154;48.558;9.234;2024-01-30T09:10:24;98898.31;;;9.91;66.08
21980;BME280;11154;48.558;9.234;2024-01-30T09:12:26;98903.97;;;9.98;65.83
21980;BME280;11154;48.558;9.234;2024-01-30T09:14:26;98907.84;;;10.05;65.25
21980;BME280;11154;48.558;9.234;2024-01-30T09:16:28;98902.16;;;10.09;64.65
21980;BME280;11154;48.558;9.234;2024-01-30T09:18:30;98901.88;;;10.12;64.44
21980;BME280;11154;48.558;9.234;2024-01-30T09:20:31;98908.66;;;10.16;63.92
21980;BME280;11154;48.558;9.234;2024-01-30T09:22:33;98909.63;;;10.15;64.14
21980;BME280;11154;48.558;9.234;2024-01-30T09:24:35;98906.09;;;10.25;65.09
21980;BME280;11154;48.558;9.234;2024-01-30T09:26:36;98907.38;;;10.31;65.47
21980;BME280;11154;48.558;9.234;2024-01-30T09:28:38;98916.69;;;10.36;65.41
21980;BME280;11154;48.558;9.234;2024-01-30T09:30:40;98914.25;;;10.44;65.13
21980;BME280;11154;48.558;9.234;2024-01-30T09:32:42;98911.09;;;10.50;66.02
21980;BME280;11154;48.558;9.234;2024-01-30T09:34:44;98920.84;;;10.61;66.03
21980;BME280;11154;48.558;9.234;2024-01-30T09:36:46;98911.38;;;10.68;66.14
21980;BME280;11154;48.558;9.234;2024-01-30T09:38:47;98916.19;;;10.74;66.00
21980;BME280;11154;48.558;9.234;2024-01-30T09:40:53;98914.78;;;10.79;64.85
21980;BME280;11154;48.558;9.234;2024-01-30T09:42:56;98916.13;;;10.84;64.51
21980;BME280;11154;48.558;9.234;2024-01-30T09:45:00;98912.09;;;10.90;64.85
21980;BME280;11154;48.558;9.234;2024-01-30T09:47:03;98910.72;;;10.95;65.47
21980;BME280;11154;48.558;9.234;2024-01-30T09:49:06;98906.56;;;11.02;65.13
21980;BME280;11154;48.558;9.234;2024-01-30T09:51:09;98909.44;;;11.10;64.41
21980;BME280;11154;48.558;9.234;2024-01-30T09:53:11;98908.50;;;11.21;63.61
21980;BME280;11154;48.558;9.234;2024-01-30T09:55:14;98909.94;;;11.25;62.88
21980;BME280;11154;48.558;9.234;2024-01-30T09:57:17;98909.25;;;11.32;62.64
21980;BME280;11154;48.558;9.234;2024-01-30T09:59:18;98910.69;;;11.36;62.21
21980;BME280;11154;48.558;9.234;2024-01-30T10:01:20;98921.66;;;11.43;62.48
21980;BME280;11154;48.558;9.234;2024-01-30T10:03:22;98914.25;;;11.46;62.14
21980;BME280;11154;48.558;9.234;2024-01-30T10:05:26;98919.13;;;11.41;60.61
21980;BME280;11154;48.558;9.234;2024-01-30T10:07:28;98911.84;;;11.43;60.89
21980;BME280;11154;48.558;9.234;2024-01-30T10:09:32;98914.97;;;11.48;61.08
21980;BME280;11154;48.558;9.234;2024-01-30T10:11:34;98916.41;;;11.52;61.00
21980;BME280;11154;48.558;9.234;2024-01-30T10:13:38;98904.97;;;11.61;62.29
21980;BME280;11154;48.558;9.234;2024-01-30T10:15:41;98909.75;;;11.67;63.29
21980;BME280;11154;48.558;9.234;2024-01-30T10:17:44;98901.94;;;11.75;63.69
21980;BME280;11154;48.558;9.234;2024-01-30T10:19:45;98901.38;;;11.81;63.89
21980;BME280;11154;48.558;9.234;2024-01-30T10:21:47;98900.28;;;11.83;64.38
21980;BME280;11154;48.558;9.234;2024-01-30T10:23:49;98896.78;;;11.92;70.06
21980;BME280;11154;48.558;9.234;2024-01-30T10:25:51;98899.88;;;11.88;66.84
21980;BME280;11154;48.558;9.234;2024-01-30T10:27:53;98904.19;;;11.89;63.99
21980;BME280;11154;48.558;9.234;2024-01-30T10:29:57;98898.59;;;11.92;61.58
21980;BME280;11154;48.558;9.234;2024-01-30T10:31:59;98899.19;;;11.95;60.48
21980;BME280;11154;48.558;9.234;2024-01-30T10:34:01;98909.31;;;12.01;60.32
21980;BME280;11154;48.558;9.234;2024-01-30T10:36:03;98901.63;;;12.08;61.23
21980;BME280;11154;48.558;9.234;2024-01-30T10:38:08;98906.25;;;12.15;61.31
21980;BME280;11154;48.558;9.234;2024-01-30T10:40:14;98897.84;;;12.20;60.16
21980;BME280;11154;48.558;9.234;2024-01-30T10:42:18;98903.19;;;12.29;60.88
21980;BME280;11154;48.558;9.234;2024-01-30T10:44:22;98894.75;;;12.33;60.80
21980;BME280;11154;48.558;9.234;2024-01-30T10:46:30;98897.56;;;12.41;61.08
21980;BME280;11154;48.558;9.234;2024-01-30T10:48:36;98898.69;;;12.48;61.20
21980;BME280;11154;48.558;9.234;2024-01-30T10:50:40;98896.44;;;12.53;61.47
21980;BME280;11154;48.558;9.234;2024-01-30T10:52:44;98892.97;;;12.62;61.57